createdAt,value
2023-08-15T00:02:21.121Z,100826.81
2023-08-15T00:04:47.480Z,100830.00
2023-08-15T00:07:13.862Z,100816.22
2023-08-15T00:09:40.214Z,100810.38
2023-08-15T00:12:06.960Z,100805.22
2023-08-15T00:14:33.370Z,100797.50
2023-08-15T00:16:59.814Z,100797.97
2023-08-15T00:19:26.236Z,100783.75
2023-08-15T00:21:52.598Z,100778.97
2023-08-15T00:24:19.225Z,100785.38
2023-08-15T00:26:45.587Z,100781.56
2023-08-15T00:29:11.966Z,100783.75
2023-08-15T00:31:38.332Z,100794.31
2023-08-15T00:34:04.677Z,100789.47
2023-08-15T00:36:31.325Z,100790.19
2023-08-15T00:39:02.469Z,100793.88
2023-08-15T00:41:30.184Z,100794.94
2023-08-15T00:43:57.834Z,100790.19
2023-08-15T00:46:24.373Z,100797.03
2023-08-15T00:48:51.106Z,100797.19
2023-08-15T00:51:18.190Z,100790.41
2023-08-15T00:53:45.014Z,100788.34
2023-08-15T00:56:11.760Z,100773.34
2023-08-15T00:58:38.434Z,100771.47
2023-08-15T01:01:04.876Z,100758.31
2023-08-15T01:03:31.677Z,100752.91
2023-08-15T01:05:58.146Z,100746.22
2023-08-15T01:08:24.533Z,100740.81
2023-08-15T01:10:51.119Z,100736.69
2023-08-15T01:13:28.753Z,100738.69
2023-08-15T01:15:55.306Z,100743.81
2023-08-15T01:18:40.237Z,100737.28
2023-08-15T01:21:07.646Z,100732.13
2023-08-15T01:23:39.771Z,100739.13
2023-08-15T01:26:06.303Z,100740.97
2023-08-15T01:28:33.122Z,100750.75
2023-08-15T01:31:11.585Z,100756.66
2023-08-15T01:33:44.340Z,100755.56
2023-08-15T01:36:15.394Z,100757.66
2023-08-15T01:38:48.986Z,100774.56
2023-08-15T01:41:20.309Z,100773.16
2023-08-15T01:43:48.360Z,100779.84
2023-08-15T01:46:15.462Z,100781.63
2023-08-15T01:48:45.128Z,100789.19
2023-08-15T01:51:11.731Z,100783.00
2023-08-15T01:53:39.218Z,100792.31
2023-08-15T01:56:06.270Z,100787.72
2023-08-15T01:58:32.822Z,100777.34
2023-08-15T02:00:59.764Z,100779.63
2023-08-15T02:03:27.011Z,100768.84
2023-08-15T02:05:53.533Z,100775.47
2023-08-15T02:08:21.588Z,100776.09
2023-08-15T02:10:48.032Z,100762.44
2023-08-15T02:13:14.413Z,100777.16
2023-08-15T02:15:40.792Z,100785.13
2023-08-15T02:18:07.333Z,100789.56
2023-08-15T02:20:33.744Z,100778.06
2023-08-15T02:23:00.154Z,100783.53
2023-08-15T02:25:26.598Z,100785.38
2023-08-15T02:27:52.945Z,100782.47
2023-08-15T02:30:19.457Z,100779.38
2023-08-15T02:32:45.884Z,100770.50
2023-08-15T02:35:14.166Z,100781.06
2023-08-15T02:37:41.161Z,100796.28
2023-08-15T02:40:09.673Z,100795.34
2023-08-15T02:42:36.307Z,100795.25
2023-08-15T02:45:03.702Z,100796.25
2023-08-15T02:47:30.127Z,100809.06
2023-08-15T02:49:56.539Z,100800.81
2023-08-15T02:52:22.899Z,100795.72
2023-08-15T02:54:49.324Z,100783.16
2023-08-15T02:57:15.681Z,100777.34
2023-08-15T02:59:42.072Z,100772.16
2023-08-15T03:02:10.921Z,100781.19
2023-08-15T03:04:37.429Z,100792.31
2023-08-15T03:07:03.809Z,100805.91
2023-08-15T03:09:30.245Z,100826.69
2023-08-15T03:11:56.606Z,100859.63
2023-08-15T03:14:23.097Z,100886.44
2023-08-15T03:16:49.483Z,100929.53
2023-08-15T03:19:15.844Z,100949.47
2023-08-15T03:21:42.187Z,100944.03
2023-08-15T03:24:08.742Z,100933.16
2023-08-15T03:26:35.113Z,100914.47
2023-08-15T03:29:01.483Z,100892.84
2023-08-15T03:31:27.874Z,100890.59
2023-08-15T03:33:54.333Z,100905.19
2023-08-15T03:36:20.704Z,100902.13
2023-08-15T03:38:47.581Z,100886.56
2023-08-15T03:41:13.936Z,100887.22
2023-08-15T03:43:40.385Z,100872.84
2023-08-15T03:46:07.356Z,100874.16
2023-08-15T03:48:34.174Z,100880.44
2023-08-15T03:51:01.507Z,100876.28
2023-08-15T03:53:28.533Z,100870.69
2023-08-15T03:55:55.690Z,100841.44
2023-08-15T03:58:22.883Z,100835.53
2023-08-15T04:00:50.335Z,100833.97
2023-08-15T04:03:18.390Z,100857.81
2023-08-15T04:05:48.656Z,100853.03
2023-08-15T04:08:16.385Z,100857.34
2023-08-15T04:10:46.486Z,100864.47
2023-08-15T04:13:13.684Z,100880.84
2023-08-15T04:15:40.374Z,100878.72
2023-08-15T04:18:08.759Z,100889.47
2023-08-15T04:20:39.333Z,100897.13
2023-08-15T04:23:07.169Z,100898.22
2023-08-15T04:25:37.855Z,100899.16
2023-08-15T04:28:05.005Z,100897.09
2023-08-15T04:30:32.665Z,100903.34
2023-08-15T04:33:02.588Z,100898.84
2023-08-15T04:35:29.425Z,100887.41
2023-08-15T04:37:56.050Z,100890.03
2023-08-15T04:40:41.910Z,100890.09
2023-08-15T04:43:09.052Z,100887.78
2023-08-15T04:45:41.622Z,100889.25
2023-08-15T04:48:09.307Z,100882.56
2023-08-15T04:50:35.696Z,100877.44
2023-08-15T04:53:02.046Z,100881.84
2023-08-15T04:55:28.418Z,100886.22
2023-08-15T04:57:54.777Z,100896.09
2023-08-15T05:00:21.866Z,100922.38
2023-08-15T05:02:48.444Z,100945.34
2023-08-15T05:05:16.059Z,100951.28
2023-08-15T05:07:42.481Z,100951.47
2023-08-15T05:10:09.386Z,100964.06
2023-08-15T05:12:35.903Z,100951.66
2023-08-15T05:15:03.028Z,100940.75
2023-08-15T05:17:31.876Z,100933.88
2023-08-15T05:19:58.622Z,100945.16
2023-08-15T05:22:25.005Z,100952.41
2023-08-15T05:24:51.551Z,100948.50
2023-08-15T05:27:17.906Z,100946.25
2023-08-15T05:29:44.903Z,100957.56
2023-08-15T05:32:11.787Z,100962.97
2023-08-15T05:34:38.355Z,100952.59
2023-08-15T05:37:04.916Z,100934.06
2023-08-15T05:39:31.357Z,100939.53
2023-08-15T05:41:57.744Z,100944.09
2023-08-15T05:44:24.161Z,100946.84
2023-08-15T05:46:50.887Z,100940.72
2023-08-15T05:49:17.289Z,100954.59
2023-08-15T05:51:43.668Z,100955.88
2023-08-15T05:54:10.031Z,100967.25
2023-08-15T05:56:36.429Z,100973.09
2023-08-15T05:59:02.884Z,100972.75
2023-08-15T06:01:29.256Z,100973.16
2023-08-15T06:03:55.772Z,100977.38
2023-08-15T06:06:23.491Z,100983.63
2023-08-15T06:08:49.901Z,100974.78
2023-08-15T06:11:16.592Z,100978.03
2023-08-15T06:13:43.111Z,100979.31
2023-08-15T06:16:11.953Z,100982.53
2023-08-15T06:18:39.958Z,100971.38
2023-08-15T06:21:06.356Z,100968.13
2023-08-15T06:23:32.781Z,100969.53
2023-08-15T06:25:59.175Z,100968.75
2023-08-15T06:28:25.528Z,100977.09
2023-08-15T06:30:51.955Z,100989.78
2023-08-15T06:33:18.426Z,100980.81
2023-08-15T06:35:44.779Z,100985.50
2023-08-15T06:38:11.487Z,100978.56
2023-08-15T06:40:37.846Z,100985.59
2023-08-15T06:43:04.394Z,100978.69
2023-08-15T06:45:30.833Z,100991.00
2023-08-15T06:47:57.277Z,100996.41
2023-08-15T06:50:23.660Z,100995.78
2023-08-15T06:52:50.023Z,100997.06
2023-08-15T06:55:16.521Z,100999.91
2023-08-15T06:57:42.903Z,101015.09
2023-08-15T07:00:12.973Z,101015.91
2023-08-15T07:02:40.479Z,101014.00
2023-08-15T07:05:08.314Z,101018.84
2023-08-15T07:07:34.734Z,101015.13
2023-08-15T07:10:01.184Z,101012.28
2023-08-15T07:12:27.590Z,101008.91
2023-08-15T07:14:53.949Z,101022.97
2023-08-15T07:17:20.359Z,101022.09
2023-08-15T07:19:46.741Z,101021.13
2023-08-15T07:22:13.090Z,101028.44
2023-08-15T07:24:39.466Z,101023.25
2023-08-15T07:27:05.928Z,101014.75
2023-08-15T07:29:32.271Z,101009.63
2023-08-15T07:31:58.707Z,101026.19
2023-08-15T07:34:25.168Z,101025.75
2023-08-15T07:36:51.543Z,101014.22
2023-08-15T07:39:17.995Z,101021.41
2023-08-15T07:41:44.433Z,101035.25
2023-08-15T07:44:11.000Z,101026.19
2023-08-15T07:46:38.075Z,101027.28
2023-08-15T07:49:04.695Z,101031.31
2023-08-15T07:51:32.696Z,101032.72
2023-08-15T07:53:59.103Z,101036.69
2023-08-15T07:56:25.526Z,101025.66
2023-08-15T07:58:51.894Z,101026.88
2023-08-15T08:01:18.984Z,101024.94
2023-08-15T08:03:45.454Z,101048.84
2023-08-15T08:06:26.434Z,101056.00
2023-08-15T08:08:58.655Z,101072.22
2023-08-15T08:11:25.180Z,101050.75
2023-08-15T08:13:51.564Z,101054.78
2023-08-15T08:16:18.446Z,101063.09
2023-08-15T08:18:44.944Z,101055.63
2023-08-15T08:21:12.293Z,101055.56
2023-08-15T08:23:38.771Z,101060.97
2023-08-15T08:26:06.184Z,101057.97
2023-08-15T08:28:32.822Z,101053.72
2023-08-15T08:31:00.109Z,101061.66
2023-08-15T08:33:29.809Z,101068.97
2023-08-15T08:35:56.219Z,101057.88
2023-08-15T08:38:24.166Z,101074.47
2023-08-15T08:40:54.872Z,101067.88
2023-08-15T08:43:21.766Z,101073.34
2023-08-15T08:45:52.036Z,101078.19
2023-08-15T08:48:19.266Z,101080.84
2023-08-15T08:50:46.080Z,101080.16
2023-08-15T08:53:12.567Z,101079.56
2023-08-15T08:55:40.176Z,101076.31
2023-08-15T08:58:07.698Z,101075.94
2023-08-15T09:00:35.148Z,101079.34
2023-08-15T09:03:01.644Z,101082.22
2023-08-15T09:05:28.638Z,101095.31
2023-08-15T09:07:55.285Z,101081.19
2023-08-15T09:10:22.942Z,101075.75
2023-08-15T09:12:49.352Z,101085.28
2023-08-15T09:15:15.820Z,101088.69
2023-08-15T09:17:44.241Z,101090.81
2023-08-15T09:20:15.570Z,101098.69
2023-08-15T09:22:48.010Z,101117.25
2023-08-15T09:25:16.767Z,101107.00
2023-08-15T09:27:44.024Z,101102.31
2023-08-15T09:30:13.233Z,101096.91
2023-08-15T09:32:43.861Z,101099.19
2023-08-15T09:35:13.472Z,101099.38
2023-08-15T09:37:45.264Z,101106.53
2023-08-15T09:40:14.947Z,101114.66
2023-08-15T09:42:41.776Z,101115.66
2023-08-15T09:45:09.637Z,101122.13
2023-08-15T09:47:38.267Z,101126.56
2023-08-15T09:50:07.883Z,101125.13
2023-08-15T09:52:40.190Z,101124.81
2023-08-15T09:55:11.223Z,101123.75
2023-08-15T09:57:38.795Z,101127.19
2023-08-15T10:00:06.824Z,101130.19
2023-08-15T10:02:43.493Z,101130.66
2023-08-15T10:05:12.298Z,101134.97
2023-08-15T10:07:40.122Z,101132.63
2023-08-15T10:10:07.053Z,101133.50
2023-08-15T10:12:36.064Z,101131.25
2023-08-15T10:15:03.489Z,101138.00
2023-08-15T10:17:33.271Z,101138.78
2023-08-15T10:20:07.458Z,101152.19
2023-08-15T10:22:35.290Z,101159.34
2023-08-15T10:25:18.643Z,101150.09
2023-08-15T10:27:53.206Z,101151.97
2023-08-15T10:30:42.657Z,101144.59
2023-08-15T10:33:13.520Z,101149.47
2023-08-15T10:36:03.152Z,101138.66
2023-08-15T10:38:41.538Z,101143.47
2023-08-15T10:41:12.307Z,101139.69
2023-08-15T10:43:38.844Z,101139.94
2023-08-15T10:46:07.544Z,101142.00
2023-08-15T10:49:01.674Z,101138.59
2023-08-15T10:51:34.813Z,101133.94
2023-08-15T10:54:04.103Z,101143.63
2023-08-15T10:56:33.144Z,101152.00
2023-08-15T10:59:04.564Z,101145.13
2023-08-15T11:01:31.625Z,101147.63
2023-08-15T11:03:59.327Z,101143.03
2023-08-15T11:06:25.985Z,101144.47
2023-08-15T11:08:57.624Z,101151.97
2023-08-15T11:11:24.162Z,101162.88
2023-08-15T11:13:53.354Z,101147.63
2023-08-15T11:16:21.768Z,101169.16
2023-08-15T11:18:49.199Z,101157.47
2023-08-15T11:21:17.884Z,101156.84
2023-08-15T11:23:47.584Z,101147.63
2023-08-15T11:26:16.064Z,101147.84
2023-08-15T11:28:42.608Z,101152.88
2023-08-15T11:31:22.047Z,101147.91
2023-08-15T11:33:52.450Z,101146.19
2023-08-15T11:36:19.371Z,101145.56
2023-08-15T11:38:45.754Z,101152.47
2023-08-15T11:41:12.437Z,101152.03
2023-08-15T11:43:38.914Z,101154.16
2023-08-15T11:46:06.426Z,101153.31
2023-08-15T11:48:33.757Z,101147.06
2023-08-15T11:51:01.379Z,101154.97
2023-08-15T11:53:28.390Z,101163.50
2023-08-15T11:55:55.101Z,101161.22
2023-08-15T11:58:31.729Z,101162.25
2023-08-15T12:01:03.534Z,101152.63
2023-08-15T12:03:30.906Z,101157.69
2023-08-15T12:05:59.206Z,101158.53
2023-08-15T12:08:30.515Z,101158.13
2023-08-15T12:11:00.969Z,101156.22
2023-08-15T12:13:38.779Z,101159.13
2023-08-15T12:16:06.942Z,101153.72
2023-08-15T12:18:34.266Z,101156.59
2023-08-15T12:21:02.026Z,101160.38
2023-08-15T12:23:30.059Z,101158.31
2023-08-15T12:25:57.055Z,101153.25
2023-08-15T12:28:23.744Z,101156.16
2023-08-15T12:30:50.888Z,101160.34
2023-08-15T12:33:27.578Z,101149.97
2023-08-15T12:36:02.240Z,101150.53
2023-08-15T12:38:28.744Z,101153.94
2023-08-15T12:40:55.143Z,101146.16
2023-08-15T12:43:21.498Z,101140.97
2023-08-15T12:45:48.484Z,101146.97
2023-08-15T12:48:14.938Z,101149.50
2023-08-15T12:50:41.324Z,101144.47
2023-08-15T12:53:09.595Z,101145.09
2023-08-15T12:55:35.972Z,101141.63
2023-08-15T12:58:04.037Z,101142.63
2023-08-15T13:00:31.078Z,101138.88
2023-08-15T13:02:58.693Z,101129.66
2023-08-15T13:05:25.287Z,101124.06
2023-08-15T13:07:51.718Z,101144.94
2023-08-15T13:10:18.164Z,101137.00
2023-08-15T13:12:44.582Z,101136.13
2023-08-15T13:15:12.318Z,101121.13
2023-08-15T13:17:38.734Z,101123.88
2023-08-15T13:20:05.734Z,101119.44
2023-08-15T13:22:32.191Z,101120.50
2023-08-15T13:24:58.600Z,101132.22
2023-08-15T13:27:25.000Z,101135.09
2023-08-15T13:29:51.378Z,101131.53
2023-08-15T13:32:17.766Z,101116.94
2023-08-15T13:34:44.202Z,101120.25
2023-08-15T13:37:10.617Z,101124.00
2023-08-15T13:39:37.032Z,101119.50
2023-08-15T13:42:04.473Z,101110.25
2023-08-15T13:44:31.026Z,101112.31
2023-08-15T13:46:57.454Z,101110.22
2023-08-15T13:49:23.888Z,101105.88
2023-08-15T13:51:50.311Z,101107.72
2023-08-15T13:54:16.690Z,101105.25
2023-08-15T13:56:43.057Z,101110.50
2023-08-15T13:59:09.506Z,101110.53
2023-08-15T14:01:35.878Z,101110.50
2023-08-15T14:04:02.538Z,101108.66
2023-08-15T14:06:29.575Z,101111.34
2023-08-15T14:08:59.002Z,101105.91
2023-08-15T14:11:25.386Z,101111.38
2023-08-15T14:13:51.805Z,101116.13
2023-08-15T14:16:18.369Z,101106.13
2023-08-15T14:18:45.148Z,101110.06
2023-08-15T14:21:15.330Z,101114.63
2023-08-15T14:23:45.507Z,101121.69
2023-08-15T14:26:12.273Z,101127.28
2023-08-15T14:28:38.927Z,101124.94
2023-08-15T14:31:06.232Z,101123.59
2023-08-15T14:33:32.630Z,101129.66
2023-08-15T14:35:59.603Z,101135.81
2023-08-15T14:38:26.944Z,101140.97
2023-08-15T14:40:53.619Z,101140.53
2023-08-15T14:43:20.067Z,101124.69
2023-08-15T14:45:46.522Z,101135.97
2023-08-15T14:48:12.905Z,101125.97
2023-08-15T14:50:40.968Z,101130.25
2023-08-15T14:53:07.452Z,101128.44
2023-08-15T14:55:33.866Z,101126.56
2023-08-15T14:58:00.945Z,101132.53
2023-08-15T15:00:27.377Z,101131.88
2023-08-15T15:02:54.158Z,101126.69
2023-08-15T15:05:20.810Z,101130.53
2023-08-15T15:07:47.516Z,101119.03
2023-08-15T15:10:13.965Z,101122.00
2023-08-15T15:12:40.593Z,101124.00
2023-08-15T15:15:09.707Z,101113.75
2023-08-15T15:17:36.143Z,101112.97
2023-08-15T15:20:04.287Z,101113.03
2023-08-15T15:22:30.943Z,101117.78
2023-08-15T15:24:57.385Z,101114.88
2023-08-15T15:27:23.762Z,101125.94
2023-08-15T15:29:50.122Z,101126.94
2023-08-15T15:32:16.588Z,101144.06
2023-08-15T15:34:42.972Z,101139.13
2023-08-15T15:37:09.339Z,101147.22
2023-08-15T15:39:35.727Z,101138.53
2023-08-15T15:42:02.141Z,101128.88
2023-08-15T15:44:30.537Z,101134.78
2023-08-15T15:46:57.081Z,101125.94
2023-08-15T15:49:23.718Z,101122.69
2023-08-15T15:51:50.155Z,101128.78
2023-08-15T15:54:16.631Z,101131.69
2023-08-15T15:56:43.104Z,101140.47
2023-08-15T15:59:09.458Z,101127.97
2023-08-15T16:01:36.022Z,101130.34
2023-08-15T16:04:02.889Z,101134.53
2023-08-15T16:06:29.694Z,101144.88
2023-08-15T16:08:56.625Z,101145.31
2023-08-15T16:11:23.217Z,101144.56
2023-08-15T16:13:49.689Z,101144.16
2023-08-15T16:16:16.473Z,101143.31
2023-08-15T16:18:44.370Z,101145.91
2023-08-15T16:21:10.920Z,101146.41
2023-08-15T16:23:37.380Z,101137.84
2023-08-15T16:26:03.765Z,101131.94
2023-08-15T16:28:30.152Z,101129.03
2023-08-15T16:30:56.591Z,101128.78
2023-08-15T16:33:23.134Z,101124.97
2023-08-15T16:35:49.490Z,101130.31
2023-08-15T16:38:16.322Z,101126.88
2023-08-15T16:40:43.475Z,101138.88
2023-08-15T16:43:17.928Z,101140.53
2023-08-15T16:45:46.303Z,101134.28
2023-08-15T16:48:12.768Z,101135.78
2023-08-15T16:50:41.177Z,101137.84
2023-08-15T16:53:07.618Z,101141.56
2023-08-15T16:55:34.669Z,101143.56
2023-08-15T16:58:01.634Z,101140.84
2023-08-15T17:00:29.639Z,101152.19
2023-08-15T17:02:56.755Z,101140.25
2023-08-15T17:05:24.123Z,101137.81
2023-08-15T17:07:50.577Z,101137.09
2023-08-15T17:10:17.066Z,101141.66
2023-08-15T17:12:43.523Z,101136.47
2023-08-15T17:15:10.447Z,101147.88
2023-08-15T17:17:36.870Z,101146.91
2023-08-15T17:20:04.326Z,101146.56
2023-08-15T17:22:33.774Z,101143.34
2023-08-15T17:25:00.340Z,101132.78
2023-08-15T17:27:26.992Z,101135.81
2023-08-15T17:29:53.738Z,101140.59
2023-08-15T17:32:20.519Z,101145.41
2023-08-15T17:34:47.236Z,101141.06
2023-08-15T17:37:13.591Z,101140.59
2023-08-15T17:39:39.952Z,101138.50
2023-08-15T17:42:06.355Z,101148.41
2023-08-15T17:44:32.736Z,101145.59
2023-08-15T17:46:59.225Z,101150.22
2023-08-15T17:49:25.668Z,101153.13
2023-08-15T17:51:52.124Z,101155.88
2023-08-15T17:54:18.774Z,101149.66
2023-08-15T17:56:45.124Z,101154.88
2023-08-15T17:59:11.632Z,101154.25
2023-08-15T18:01:39.799Z,101152.53
2023-08-15T18:04:06.709Z,101156.72
2023-08-15T18:06:35.024Z,101161.75
2023-08-15T18:09:02.220Z,101163.38
2023-08-15T18:11:28.983Z,101171.13
2023-08-15T18:13:55.425Z,101171.16
2023-08-15T18:16:21.800Z,101169.78
2023-08-15T18:18:48.200Z,101175.63
2023-08-15T18:21:14.773Z,101181.09
2023-08-15T18:23:41.282Z,101184.31
2023-08-15T18:26:08.656Z,101191.56
2023-08-15T18:28:35.868Z,101197.06
2023-08-15T18:31:02.522Z,101199.16
2023-08-15T18:33:29.078Z,101198.34
2023-08-15T18:35:55.520Z,101204.81
2023-08-15T18:38:21.958Z,101202.34
2023-08-15T18:40:48.316Z,101197.78
2023-08-15T18:43:15.315Z,101208.63
2023-08-15T18:45:45.557Z,101217.41
2023-08-15T18:48:13.024Z,101221.81
2023-08-15T18:50:45.558Z,101221.19
2023-08-15T18:53:12.102Z,101222.63
2023-08-15T18:55:39.719Z,101222.19
2023-08-15T18:58:07.623Z,101230.56
2023-08-15T19:00:34.301Z,101232.66
2023-08-15T19:03:00.820Z,101225.97
2023-08-15T19:05:27.323Z,101236.16
2023-08-15T19:07:53.793Z,101234.88
2023-08-15T19:10:20.847Z,101236.34
2023-08-15T19:12:47.345Z,101245.06
2023-08-15T19:15:18.192Z,101246.28
2023-08-15T19:17:48.576Z,101247.38
2023-08-15T19:20:19.292Z,101252.16
2023-08-15T19:22:45.784Z,101254.84
2023-08-15T19:25:12.239Z,101253.78
2023-08-15T19:27:38.779Z,101261.81
2023-08-15T19:30:06.134Z,101264.53
2023-08-15T19:32:33.255Z,101259.53
2023-08-15T19:35:00.024Z,101269.31
2023-08-15T19:37:37.137Z,101268.34
2023-08-15T19:40:04.613Z,101263.75
2023-08-15T19:42:31.005Z,101269.56
2023-08-15T19:45:00.529Z,101267.91
2023-08-15T19:47:27.436Z,101264.97
2023-08-15T19:49:53.800Z,101276.75
2023-08-15T19:52:21.712Z,101266.75
2023-08-15T19:54:49.455Z,101260.88
2023-08-15T19:57:15.900Z,101261.91
2023-08-15T19:59:42.324Z,101255.00
2023-08-15T20:02:08.724Z,101255.59
2023-08-15T20:04:35.141Z,101253.94
2023-08-15T20:07:01.560Z,101261.53
2023-08-15T20:09:27.990Z,101267.47
2023-08-15T20:11:54.426Z,101265.38
2023-08-15T20:14:22.013Z,101270.59
2023-08-15T20:16:48.536Z,101266.91
2023-08-15T20:19:15.000Z,101262.25
2023-08-15T20:21:41.414Z,101261.41
2023-08-15T20:24:08.268Z,101258.28
2023-08-15T20:26:34.649Z,101265.53
2023-08-15T20:29:01.093Z,101269.03
2023-08-15T20:31:27.781Z,101263.13
2023-08-15T20:33:54.332Z,101275.38
2023-08-15T20:36:20.828Z,101273.41
2023-08-15T20:38:47.200Z,101267.41
2023-08-15T20:41:13.671Z,101265.69
2023-08-15T20:43:40.073Z,101269.94
2023-08-15T20:46:06.460Z,101274.63
2023-08-15T20:48:32.910Z,101286.56
2023-08-15T20:50:59.353Z,101285.34
2023-08-15T20:53:25.708Z,101283.06
2023-08-15T20:55:52.132Z,101280.09
2023-08-15T20:58:18.647Z,101279.53
2023-08-15T21:00:46.364Z,101283.78
2023-08-15T21:03:13.410Z,101285.09
2023-08-15T21:05:39.867Z,101289.63
2023-08-15T21:08:06.398Z,101288.63
2023-08-15T21:10:32.762Z,101293.75
2023-08-15T21:13:02.356Z,101286.34
2023-08-15T21:15:28.718Z,101291.72
2023-08-15T21:17:55.173Z,101284.75
2023-08-15T21:20:22.018Z,101295.78
2023-08-15T21:22:48.801Z,101294.94
2023-08-15T21:25:15.521Z,101287.94
2023-08-15T21:27:41.948Z,101287.84
2023-08-15T21:30:08.792Z,101278.03
2023-08-15T21:32:35.204Z,101289.53
2023-08-15T21:35:01.625Z,101281.44
2023-08-15T21:37:28.008Z,101277.19
2023-08-15T21:39:54.404Z,101285.06
2023-08-15T21:42:20.739Z,101284.78
2023-08-15T21:44:47.167Z,101285.50
2023-08-15T21:47:13.572Z,101282.13
2023-08-15T21:49:39.956Z,101286.63
2023-08-15T21:52:06.535Z,101286.44
2023-08-15T21:54:32.937Z,101290.31
2023-08-15T21:57:05.580Z,101292.50
2023-08-15T21:59:32.866Z,101288.09
2023-08-15T22:02:00.757Z,101296.13
2023-08-15T22:04:27.326Z,101300.28
2023-08-15T22:06:53.763Z,101301.50
2023-08-15T22:09:20.240Z,101295.56
2023-08-15T22:11:46.591Z,101295.59
2023-08-15T22:14:13.076Z,101294.66
2023-08-15T22:16:39.506Z,101301.44
2023-08-15T22:19:06.010Z,101300.81
2023-08-15T22:21:32.552Z,101301.31
2023-08-15T22:23:58.927Z,101307.50
2023-08-15T22:26:25.312Z,101305.91
2023-08-15T22:28:51.686Z,101301.94
2023-08-15T22:31:18.103Z,101317.13
2023-08-15T22:33:44.535Z,101311.31
2023-08-15T22:36:11.020Z,101310.69
2023-08-15T22:38:37.377Z,101309.28
2023-08-15T22:41:03.787Z,101319.91
2023-08-15T22:43:30.173Z,101323.34
2023-08-15T22:45:56.581Z,101325.00
2023-08-15T22:48:23.025Z,101323.34
2023-08-15T22:50:49.452Z,101322.03
2023-08-15T22:53:15.850Z,101323.41
2023-08-15T22:55:42.230Z,101324.00
2023-08-15T22:58:09.046Z,101325.59
2023-08-15T23:00:35.464Z,101323.13
2023-08-15T23:03:01.915Z,101330.88
2023-08-15T23:05:28.401Z,101331.31
2023-08-15T23:07:54.776Z,101331.06
2023-08-15T23:10:21.167Z,101323.81
2023-08-15T23:12:47.735Z,101319.63
2023-08-15T23:15:14.248Z,101315.28
2023-08-15T23:17:40.706Z,101313.00
2023-08-15T23:20:09.217Z,101309.91
2023-08-15T23:22:35.662Z,101309.91
2023-08-15T23:25:04.059Z,101308.34
2023-08-15T23:27:30.515Z,101319.41
2023-08-15T23:29:57.007Z,101307.34
2023-08-15T23:32:23.414Z,101307.63
2023-08-15T23:34:49.798Z,101309.09
2023-08-15T23:37:16.648Z,101304.75
2023-08-15T23:39:43.116Z,101302.38
2023-08-15T23:42:09.532Z,101305.81
2023-08-15T23:44:35.893Z,101305.91
2023-08-15T23:47:02.298Z,101302.47
2023-08-15T23:49:28.986Z,101312.06
2023-08-15T23:51:55.904Z,101311.41
2023-08-15T23:54:22.980Z,101310.75
2023-08-15T23:56:49.340Z,101316.22
2023-08-15T23:59:15.699Z,101312.97
